Time,TemperatureF,DewpointF,PressureIn,WindDirection,WindDirectionDegrees,WindSpeedMPH,WindSpeedGustMPH,Humidity,HourlyPrecipIn,Conditions,Clouds,dailyrainin,SoftwareType,DateUTC
2013-03-16 00:02:00,31.0,31.0,-100.00,North,355,0.0,0.0,99,-99.99,,,-99.99,,2013-03-16 05:02:00,
2013-03-16 00:22:00,31.0,31.0,-100.00,North,355,0.0,0.0,99,-99.99,,,-99.99,,2013-03-16 05:22:00,
2013-03-16 00:32:00,31.0,31.0,-100.00,North,355,0.0,0.0,99,-99.99,,,-99.99,,2013-03-16 05:32:00,
2013-03-16 00:42:00,31.0,31.0,-100.00,North,355,0.0,0.0,99,-99.99,,,-99.99,,2013-03-16 05:42:00,
2013-03-16 00:53:00,31.0,31.0,-100.00,North,355,0.0,0.0,99,-99.99,,,-99.99,,2013-03-16 05:53:00,
2013-03-16 01:02:00,31.0,31.0,-100.00,North,355,0.0,0.0,99,-99.99,,,-99.99,,2013-03-16 06:02:00,
2013-03-16 01:22:00,32.0,31.0,-100.00,North,355,0.0,0.0,99,-99.99,,,-99.99,,2013-03-16 06:22:00,
2013-03-16 01:32:00,32.0,31.0,-100.00,North,355,0.0,0.0,99,-99.99,,,-99.99,,2013-03-16 06:32:00,
2013-03-16 01:42:00,32.0,31.0,-100.00,North,355,0.0,0.0,99,-99.99,,,-99.99,,2013-03-16 06:42:00,
2013-03-16 01:52:00,32.0,31.0,-100.00,North,355,0.0,0.0,99,-99.99,,,-99.99,,2013-03-16 06:52:00,
2013-03-16 02:02:00,32.0,31.0,-100.00,North,355,0.0,0.0,99,-99.99,,,-99.99,,2013-03-16 07:02:00,
2013-03-16 02:22:00,32.0,32.0,-100.00,North,355,0.0,0.0,99,-99.99,,,-99.99,,2013-03-16 07:22:00,
2013-03-16 02:32:00,32.0,32.0,-100.00,North,355,0.0,0.0,99,-99.99,,,-99.99,,2013-03-16 07:32:00,
2013-03-16 02:42:00,32.0,32.0,-100.00,North,355,0.0,0.0,99,-99.99,,,-99.99,,2013-03-16 07:42:00,
2013-03-16 02:52:00,32.0,32.0,-100.00,North,355,0.0,0.0,99,-99.99,,,-99.99,,2013-03-16 07:52:00,
2013-03-16 03:02:00,32.0,32.0,-100.00,North,355,0.0,0.0,99,-99.99,,,-99.99,,2013-03-16 08:02:00,
2013-03-16 03:23:00,31.0,31.0,-100.00,North,355,0.0,0.0,99,-99.99,,,-99.99,,2013-03-16 08:23:00,
2013-03-16 03:33:00,31.0,31.0,-100.00,North,355,0.0,0.0,99,-99.99,,,-99.99,,2013-03-16 08:33:00,
2013-03-16 03:42:00,31.0,31.0,-100.00,North,355,0.0,0.0,99,-99.99,,,-99.99,,2013-03-16 08:42:00,
2013-03-16 03:52:00,31.0,31.0,-100.00,North,355,0.0,0.0,99,-99.99,,,-99.99,,2013-03-16 08:52:00,
2013-03-16 04:01:00,31.0,31.0,-100.00,North,355,0.0,0.0,99,-99.99,,,-99.99,,2013-03-16 09:01:00,
2013-03-16 04:22:00,30.0,30.0,-100.00,North,355,0.0,0.0,99,-99.99,,,-99.99,,2013-03-16 09:22:00,
2013-03-16 04:33:00,30.0,30.0,-100.00,North,355,0.0,0.0,99,-99.99,,,-99.99,,2013-03-16 09:33:00,
2013-03-16 04:42:00,30.0,30.0,-100.00,North,355,0.0,0.0,99,-99.99,,,-99.99,,2013-03-16 09:42:00,
2013-03-16 04:53:00,30.0,30.0,-100.00,North,355,0.0,0.0,99,-99.99,,,-99.99,,2013-03-16 09:53:00,
2013-03-16 05:03:00,30.0,30.0,-100.00,North,355,0.0,0.0,99,-99.99,,,-99.99,,2013-03-16 10:03:00,
2013-03-16 05:23:00,29.0,29.0,-100.00,North,355,0.0,0.0,99,-99.99,,,-99.99,,2013-03-16 10:23:00,
2013-03-16 05:32:00,29.0,29.0,-100.00,North,355,0.0,0.0,99,-99.99,,,-99.99,,2013-03-16 10:32:00,
2013-03-16 05:42:00,29.0,29.0,-100.00,North,355,0.0,0.0,99,-99.99,,,-99.99,,2013-03-16 10:42:00,
2013-03-16 05:53:00,29.0,29.0,-100.00,North,355,0.0,0.0,99,-99.99,,,-99.99,,2013-03-16 10:53:00,
2013-03-16 06:03:00,29.0,29.0,-100.00,North,355,0.0,0.0,99,-99.99,,,-99.99,,2013-03-16 11:03:00,
2013-03-16 06:33:00,29.0,29.0,-100.00,North,355,0.0,0.0,99,-99.99,,,-99.99,,2013-03-16 11:33:00,
2013-03-16 06:43:00,29.0,29.0,-100.00,North,355,0.0,0.0,99,-99.99,,,-99.99,,2013-03-16 11:43:00,
2013-03-16 06:53:00,29.0,29.0,-100.00,North,355,0.0,0.0,99,-99.99,,,-99.99,,2013-03-16 11:53:00,
2013-03-16 07:02:00,29.0,29.0,-100.00,North,355,0.0,0.0,99,-99.99,,,-99.99,,2013-03-16 12:02:00,
2013-03-16 07:22:00,29.0,28.0,-100.00,North,355,0.0,0.0,99,-99.99,,,-99.99,,2013-03-16 12:22:00,
2013-03-16 07:32:00,29.0,28.0,-100.00,North,355,0.0,0.0,99,-99.99,,,-99.99,,2013-03-16 12:32:00,
2013-03-16 07:43:00,29.0,28.0,-100.00,North,355,0.0,0.0,99,-99.99,,,-99.99,,2013-03-16 12:43:00,
2013-03-16 07:52:00,29.0,28.0,-100.00,North,355,0.0,0.0,99,-99.99,,,-99.99,,2013-03-16 12:52:00,
2013-03-16 08:02:00,29.0,28.0,-100.00,North,355,0.0,0.0,99,-99.99,,,-99.99,,2013-03-16 13:02:00,
2013-03-16 08:23:00,28.0,28.0,-100.00,North,355,0.0,0.0,99,-99.99,,,-99.99,,2013-03-16 13:23:00,
2013-03-16 08:32:00,28.0,28.0,-100.00,North,355,0.0,0.0,99,-99.99,,,-99.99,,2013-03-16 13:32:00,
2013-03-16 08:42:00,28.0,28.0,-100.00,North,355,0.0,0.0,99,-99.99,,,-99.99,,2013-03-16 13:42:00,
2013-03-16 08:53:00,28.0,28.0,-100.00,North,355,0.0,0.0,99,-99.99,,,-99.99,,2013-03-16 13:53:00,
2013-03-16 09:02:00,28.0,28.0,-100.00,North,355,0.0,0.0,99,-99.99,,,-99.99,,2013-03-16 14:02:00,
2013-03-16 09:22:00,25.0,25.0,-100.00,North,355,0.0,0.0,99,-99.99,,,-99.99,,2013-03-16 14:22:00,
2013-03-16 09:32:00,25.0,25.0,-100.00,North,355,0.0,0.0,99,-99.99,,,-99.99,,2013-03-16 14:32:00,
2013-03-16 09:42:00,25.0,25.0,-100.00,North,355,0.0,0.0,99,-99.99,,,-99.99,,2013-03-16 14:42:00,
2013-03-16 09:52:00,25.0,25.0,-100.00,North,355,0.0,0.0,99,-99.99,,,-99.99,,2013-03-16 14:52:00,
2013-03-16 10:02:00,25.0,25.0,-100.00,North,355,0.0,0.0,99,-99.99,,,-99.99,,2013-03-16 15:02:00,
2013-03-16 10:23:00,24.0,24.0,-100.00,North,355,0.0,0.0,99,-99.99,,,-99.99,,2013-03-16 15:23:00,
2013-03-16 10:33:00,24.0,24.0,-100.00,North,355,0.0,0.0,99,-99.99,,,-99.99,,2013-03-16 15:33:00,
2013-03-16 10:44:00,24.0,24.0,-100.00,North,355,0.0,0.0,99,-99.99,,,-99.99,,2013-03-16 15:44:00,
2013-03-16 10:53:00,24.0,24.0,-100.00,North,355,0.0,0.0,99,-99.99,,,-99.99,,2013-03-16 15:53:00,
2013-03-16 11:03:00,24.0,24.0,-100.00,North,355,0.0,0.0,99,-99.99,,,-99.99,,2013-03-16 16:03:00,
2013-03-16 11:23:00,25.0,25.0,-100.00,North,355,0.0,0.0,99,-99.99,,,-99.99,,2013-03-16 16:23:00,
2013-03-16 11:33:00,25.0,25.0,-100.00,North,355,0.0,0.0,99,-99.99,,,-99.99,,2013-03-16 16:33:00,
2013-03-16 11:43:00,25.0,25.0,-100.00,North,355,0.0,0.0,99,-99.99,,,-99.99,,2013-03-16 16:43:00,
2013-03-16 11:53:00,25.0,25.0,-100.00,North,355,0.0,0.0,99,-99.99,,,-99.99,,2013-03-16 16:53:00,
2013-03-16 12:23:00,26.0,26.0,-100.00,North,355,0.0,0.0,99,-99.99,,,-99.99,,2013-03-16 17:23:00,
2013-03-16 12:33:00,26.0,26.0,-100.00,North,355,0.0,0.0,99,-99.99,,,-99.99,,2013-03-16 17:33:00,
2013-03-16 12:43:00,26.0,26.0,-100.00,North,355,0.0,0.0,99,-99.99,,,-99.99,,2013-03-16 17:43:00,
2013-03-16 12:53:00,26.0,26.0,-100.00,North,355,0.0,0.0,99,-99.99,,,-99.99,,2013-03-16 17:53:00,
2013-03-16 13:02:00,26.0,26.0,-100.00,North,355,0.0,0.0,99,-99.99,,,-99.99,,2013-03-16 18:02:00,
2013-03-16 13:23:00,27.0,27.0,-100.00,North,355,0.0,0.0,99,-99.99,,,-99.99,,2013-03-16 18:23:00,
2013-03-16 13:33:00,27.0,27.0,-100.00,North,355,0.0,0.0,99,-99.99,,,-99.99,,2013-03-16 18:33:00,
2013-03-16 13:43:00,27.0,27.0,-100.00,North,355,0.0,0.0,99,-99.99,,,-99.99,,2013-03-16 18:43:00,
2013-03-16 13:53:00,27.0,27.0,-100.00,North,355,0.0,0.0,99,-99.99,,,-99.99,,2013-03-16 18:53:00,
2013-03-16 14:02:00,27.0,27.0,-100.00,North,355,0.0,0.0,99,-99.99,,,-99.99,,2013-03-16 19:02:00,
2013-03-16 14:23:00,29.0,29.0,-100.00,North,355,0.0,0.0,99,-99.99,,,-99.99,,2013-03-16 19:23:00,
2013-03-16 14:33:00,29.0,29.0,-100.00,North,355,0.0,0.0,99,-99.99,,,-99.99,,2013-03-16 19:33:00,
2013-03-16 14:42:00,29.0,29.0,-100.00,North,355,0.0,0.0,99,-99.99,,,-99.99,,2013-03-16 19:42:00,
2013-03-16 14:53:00,29.0,29.0,-100.00,North,355,0.0,0.0,99,-99.99,,,-99.99,,2013-03-16 19:53:00,
2013-03-16 15:02:00,29.0,29.0,-100.00,North,355,0.0,0.0,99,-99.99,,,-99.99,,2013-03-16 20:02:00,
2013-03-16 15:22:00,32.0,32.0,-100.00,North,355,0.0,0.0,99,-99.99,,,-99.99,,2013-03-16 20:22:00,
2013-03-16 15:33:00,32.0,32.0,-100.00,North,355,0.0,0.0,99,-99.99,,,-99.99,,2013-03-16 20:33:00,
2013-03-16 15:42:00,32.0,32.0,-100.00,North,355,0.0,0.0,99,-99.99,,,-99.99,,2013-03-16 20:42:00,
2013-03-16 15:52:00,32.0,32.0,-100.00,North,355,0.0,0.0,99,-99.99,,,-99.99,,2013-03-16 20:52:00,
2013-03-16 16:02:00,32.0,32.0,-100.00,North,355,0.0,0.0,99,-99.99,,,-99.99,,2013-03-16 21:02:00,
2013-03-16 16:23:00,32.0,31.0,-100.00,North,355,0.0,0.0,96,-99.99,,,-99.99,,2013-03-16 21:23:00,
2013-03-16 16:33:00,32.0,31.0,-100.00,North,355,0.0,0.0,96,-99.99,,,-99.99,,2013-03-16 21:33:00,
2013-03-16 16:43:00,32.0,31.0,-100.00,North,355,0.0,0.0,96,-99.99,,,-99.99,,2013-03-16 21:43:00,
2013-03-16 16:53:00,32.0,31.0,-100.00,North,355,0.0,0.0,96,-99.99,,,-99.99,,2013-03-16 21:53:00,
2013-03-16 17:03:00,32.0,31.0,-100.00,North,355,0.0,0.0,96,-99.99,,,-99.99,,2013-03-16 22:03:00,
2013-03-16 17:33:00,33.0,30.0,-100.00,North,355,0.0,0.0,91,-99.99,,,-99.99,,2013-03-16 22:33:00,
2013-03-16 17:42:00,33.0,30.0,-100.00,North,355,0.0,0.0,91,-99.99,,,-99.99,,2013-03-16 22:42:00,
2013-03-16 17:53:00,33.0,30.0,-100.00,North,355,0.0,0.0,91,-99.99,,,-99.99,,2013-03-16 22:53:00,
2013-03-16 18:02:00,33.0,30.0,-100.00,North,355,0.0,0.0,91,-99.99,,,-99.99,,2013-03-16 23:02:00,
2013-03-16 18:23:00,31.0,28.0,-100.00,North,355,0.0,0.0,90,-99.99,,,-99.99,,2013-03-16 23:23:00,
2013-03-16 18:33:00,31.0,28.0,-100.00,North,355,0.0,0.0,90,-99.99,,,-99.99,,2013-03-16 23:33:00,
2013-03-16 18:42:00,31.0,28.0,-100.00,North,355,0.0,0.0,90,-99.99,,,-99.99,,2013-03-16 23:42:00,
2013-03-16 18:52:00,31.0,28.0,-100.00,North,355,0.0,0.0,90,-99.99,,,-99.99,,2013-03-16 23:52:00,
2013-03-16 19:01:00,31.0,28.0,-100.00,North,355,0.0,0.0,90,-99.99,,,-99.99,,2013-03-17 00:01:00,
2013-03-16 19:23:00,29.0,27.0,-100.00,North,355,0.0,0.0,89,-99.99,,,-99.99,,2013-03-17 00:23:00,
2013-03-16 19:33:00,29.0,27.0,-100.00,North,355,0.0,0.0,89,-99.99,,,-99.99,,2013-03-17 00:33:00,
2013-03-16 19:43:00,29.0,27.0,-100.00,North,355,0.0,0.0,89,-99.99,,,-99.99,,2013-03-17 00:43:00,
2013-03-16 19:52:00,29.0,27.0,-100.00,North,355,0.0,0.0,89,-99.99,,,-99.99,,2013-03-17 00:52:00,
2013-03-16 20:02:00,29.0,27.0,-100.00,North,355,0.0,0.0,89,-99.99,,,-99.99,,2013-03-17 01:02:00,
2013-03-16 20:23:00,29.0,27.0,-100.00,North,355,0.0,0.0,90,-99.99,,,-99.99,,2013-03-17 01:23:00,
2013-03-16 20:33:00,29.0,27.0,-100.00,North,355,0.0,0.0,90,-99.99,,,-99.99,,2013-03-17 01:33:00,
2013-03-16 20:43:00,29.0,27.0,-100.00,North,355,0.0,0.0,90,-99.99,,,-99.99,,2013-03-17 01:43:00,
2013-03-16 20:53:00,29.0,27.0,-100.00,North,355,0.0,0.0,90,-99.99,,,-99.99,,2013-03-17 01:53:00,
2013-03-16 21:02:00,29.0,27.0,-100.00,North,355,0.0,0.0,90,-99.99,,,-99.99,,2013-03-17 02:02:00,
2013-03-16 21:23:00,29.0,27.0,-100.00,North,355,0.0,0.0,90,-99.99,,,-99.99,,2013-03-17 02:23:00,
2013-03-16 21:33:00,29.0,27.0,-100.00,North,355,0.0,0.0,90,-99.99,,,-99.99,,2013-03-17 02:33:00,
2013-03-16 21:43:00,29.0,27.0,-100.00,North,355,0.0,0.0,90,-99.99,,,-99.99,,2013-03-17 02:43:00,
2013-03-16 21:53:00,29.0,27.0,-100.00,North,355,0.0,0.0,90,-99.99,,,-99.99,,2013-03-17 02:53:00,
2013-03-16 22:02:00,29.0,27.0,-100.00,North,355,0.0,0.0,90,-99.99,,,-99.99,,2013-03-17 03:02:00,
2013-03-16 22:23:00,29.0,27.0,-100.00,North,355,0.0,0.0,91,-99.99,,,-99.99,,2013-03-17 03:23:00,
2013-03-16 22:34:00,29.0,27.0,-100.00,North,355,0.0,0.0,91,-99.99,,,-99.99,,2013-03-17 03:34:00,
2013-03-16 22:43:00,29.0,27.0,-100.00,North,355,0.0,0.0,91,-99.99,,,-99.99,,2013-03-17 03:43:00,
2013-03-16 22:53:00,29.0,27.0,-100.00,North,355,0.0,0.0,91,-99.99,,,-99.99,,2013-03-17 03:53:00,
2013-03-16 23:03:00,29.0,27.0,-100.00,North,355,0.0,0.0,91,-99.99,,,-99.99,,2013-03-17 04:03:00,
2013-03-16 23:23:00,29.0,27.0,-100.00,North,355,0.0,0.0,90,-99.99,,,-99.99,,2013-03-17 04:23:00,
2013-03-16 23:33:00,29.0,27.0,-100.00,North,355,0.0,0.0,90,-99.99,,,-99.99,,2013-03-17 04:33:00,
2013-03-16 23:43:00,29.0,27.0,-100.00,North,355,0.0,0.0,90,-99.99,,,-99.99,,2013-03-17 04:43:00,
2013-03-16 23:53:00,29.0,27.0,-100.00,North,355,0.0,0.0,90,-99.99,,,-99.99,,2013-03-17 04:53:00,